createdAt,value
2018-08-22T00:01:50.297Z,9.50
2018-08-22T00:04:18.665Z,8.70
2018-08-22T00:06:47.071Z,9.00
2018-08-22T00:09:15.468Z,9.30
2018-08-22T00:11:43.857Z,9.00
2018-08-22T00:14:12.709Z,9.87
2018-08-22T00:16:41.134Z,9.20
2018-08-22T00:19:09.571Z,9.37
2018-08-22T00:21:37.932Z,9.63
2018-08-22T00:24:06.442Z,8.70
2018-08-22T00:26:34.776Z,9.60
2018-08-22T00:29:03.213Z,9.20
2018-08-22T00:31:31.598Z,9.37
2018-08-22T00:34:00.080Z,9.57
2018-08-22T00:36:28.432Z,9.40
2018-08-22T00:38:56.836Z,8.57
2018-08-22T00:41:25.206Z,9.27
2018-08-22T00:43:54.355Z,9.63
2018-08-22T00:46:22.728Z,9.70
2018-08-22T00:48:51.097Z,8.80
2018-08-22T00:51:19.492Z,9.10
2018-08-22T00:53:47.908Z,9.13
2018-08-22T00:56:16.333Z,8.97
2018-08-22T00:58:44.725Z,9.27
2018-08-22T01:01:13.092Z,8.57
2018-08-22T01:03:41.470Z,9.00
2018-08-22T01:06:09.886Z,9.33
2018-08-22T01:08:38.273Z,9.70
2018-08-22T01:11:06.638Z,8.80
2018-08-22T01:13:35.066Z,8.37
2018-08-22T01:16:03.532Z,8.87
2018-08-22T01:18:31.902Z,8.50
2018-08-22T01:21:00.314Z,9.20
2018-08-22T01:23:28.937Z,9.13
2018-08-22T01:25:57.309Z,8.77
2018-08-22T01:28:25.701Z,9.33
2018-08-22T01:30:54.121Z,9.10
2018-08-22T01:33:22.527Z,8.70
2018-08-22T01:35:50.905Z,9.43
2018-08-22T01:38:19.296Z,9.83
2018-08-22T01:40:47.662Z,9.80
2018-08-22T01:43:16.086Z,9.13
2018-08-22T01:45:44.436Z,8.90
2018-08-22T01:48:12.828Z,9.10
2018-08-22T01:50:41.276Z,8.73
2018-08-22T01:53:09.609Z,8.70
2018-08-22T01:55:38.040Z,8.77
2018-08-22T01:58:06.464Z,9.27
2018-08-22T02:00:34.903Z,8.97
2018-08-22T02:03:03.298Z,9.13
2018-08-22T02:05:32.613Z,8.83
2018-08-22T02:08:01.001Z,8.93
2018-08-22T02:10:29.428Z,9.40
2018-08-22T02:12:57.773Z,9.03
2018-08-22T02:15:26.301Z,9.90
2018-08-22T02:17:54.701Z,9.17
2018-08-22T02:20:23.171Z,8.77
2018-08-22T02:22:51.559Z,9.20
2018-08-22T02:25:19.952Z,9.63
2018-08-22T02:27:48.353Z,9.40
2018-08-22T02:30:17.423Z,10.77
2018-08-22T02:32:45.830Z,10.27
2018-08-22T02:35:14.205Z,10.00
2018-08-22T02:37:42.560Z,10.73
2018-08-22T02:40:10.973Z,10.77
2018-08-22T02:42:39.374Z,10.93
2018-08-22T02:45:07.775Z,11.17
2018-08-22T02:47:36.167Z,11.10
2018-08-22T02:50:05.352Z,9.73
2018-08-22T02:52:34.864Z,9.30
2018-08-22T02:55:03.311Z,12.20
2018-08-22T02:57:31.666Z,13.60
2018-08-22T03:00:00.074Z,12.90
2018-08-22T03:02:28.460Z,11.20
2018-08-22T03:04:56.853Z,11.43
2018-08-22T03:07:25.277Z,11.87
2018-08-22T03:09:54.170Z,13.10
2018-08-22T03:12:22.569Z,14.13
2018-08-22T03:14:51.018Z,13.47
2018-08-22T03:17:20.345Z,13.00
2018-08-22T03:19:49.273Z,14.63
2018-08-22T03:22:17.683Z,14.63
2018-08-22T03:24:46.172Z,14.53
2018-08-22T03:27:14.534Z,13.87
2018-08-22T03:29:43.486Z,14.67
2018-08-22T03:32:11.929Z,15.83
2018-08-22T03:34:40.305Z,15.80
2018-08-22T03:37:08.671Z,14.50
2018-08-22T03:39:38.567Z,15.30
2018-08-22T03:42:07.810Z,14.53
2018-08-22T03:44:36.205Z,13.97
2018-08-22T03:47:04.615Z,15.53
2018-08-22T03:49:33.006Z,15.63
2018-08-22T03:52:01.419Z,16.37
2018-08-22T03:54:30.523Z,14.87
2018-08-22T03:56:58.880Z,13.43
2018-08-22T03:59:28.669Z,14.87
2018-08-22T04:01:57.061Z,15.00
2018-08-22T04:04:26.360Z,14.87
2018-08-22T04:06:57.718Z,16.73
2018-08-22T04:09:26.109Z,16.53
2018-08-22T04:11:54.520Z,16.07
2018-08-22T04:14:23.947Z,15.70
2018-08-22T04:16:52.329Z,15.97
2018-08-22T04:19:21.472Z,16.03
2018-08-22T04:21:50.010Z,16.37
2018-08-22T04:24:18.357Z,14.23
2018-08-22T04:26:47.760Z,16.20
2018-08-22T04:29:16.138Z,16.60
2018-08-22T04:31:46.240Z,16.70
2018-08-22T04:34:15.979Z,16.83
2018-08-22T04:36:45.596Z,16.47
2018-08-22T04:39:14.053Z,16.93
2018-08-22T04:41:42.505Z,16.03
2018-08-22T04:44:11.920Z,17.80
2018-08-22T04:46:40.317Z,15.73
2018-08-22T04:49:09.235Z,17.63
2018-08-22T04:51:37.669Z,19.03
2018-08-22T04:54:07.809Z,19.17
2018-08-22T04:56:36.200Z,18.33
2018-08-22T04:59:04.628Z,19.50
2018-08-22T05:01:33.060Z,22.00
2018-08-22T05:04:01.445Z,22.37
2018-08-22T05:06:29.801Z,22.30
2018-08-22T05:08:58.236Z,21.93
2018-08-22T05:11:26.652Z,24.47
2018-08-22T05:13:55.049Z,27.00
2018-08-22T05:16:23.436Z,27.20
2018-08-22T05:18:51.996Z,31.10
2018-08-22T05:21:20.400Z,29.27
2018-08-22T05:23:48.799Z,29.50
2018-08-22T05:26:17.240Z,24.63
2018-08-22T05:28:45.668Z,26.27
2018-08-22T05:31:14.141Z,26.00
2018-08-22T05:33:42.590Z,29.63
2018-08-22T05:36:11.002Z,33.33
2018-08-22T05:38:39.419Z,27.73
2018-08-22T05:41:07.914Z,27.20
2018-08-22T05:43:36.293Z,27.40
2018-08-22T05:46:04.829Z,25.80
2018-08-22T05:48:33.185Z,28.70
2018-08-22T05:51:01.545Z,30.50
2018-08-22T05:53:29.950Z,31.80
2018-08-22T05:55:58.796Z,32.20
2018-08-22T05:58:27.185Z,36.27
2018-08-22T06:00:55.627Z,33.67
2018-08-22T06:03:24.836Z,27.50
2018-08-22T06:05:53.277Z,32.63
2018-08-22T06:08:21.658Z,34.20
2018-08-22T06:10:50.050Z,35.10
2018-08-22T06:13:18.449Z,36.33
2018-08-22T06:15:47.277Z,32.87
2018-08-22T06:18:15.701Z,28.57
2018-08-22T06:20:44.555Z,37.47
2018-08-22T06:23:13.025Z,35.80
2018-08-22T06:25:41.449Z,30.57
2018-08-22T06:28:09.791Z,37.43
2018-08-22T06:30:38.270Z,38.10
2018-08-22T06:33:06.727Z,38.67
2018-08-22T06:35:35.564Z,41.27
2018-08-22T06:38:03.996Z,39.30
2018-08-22T06:40:32.370Z,35.47
2018-08-22T06:43:00.826Z,37.57
2018-08-22T06:45:29.205Z,33.73
2018-08-22T06:47:57.589Z,39.23
2018-08-22T06:50:25.967Z,35.77
2018-08-22T06:52:54.861Z,37.37
2018-08-22T06:55:23.250Z,36.37
2018-08-22T06:57:51.660Z,37.77
2018-08-22T07:00:20.122Z,25.10
2018-08-22T07:02:48.585Z,35.60
2018-08-22T07:05:16.980Z,30.80
2018-08-22T07:07:46.071Z,28.83
2018-08-22T07:10:14.482Z,12.67
2018-08-22T07:12:42.952Z,27.47
2018-08-22T07:15:11.332Z,25.47
2018-08-22T07:17:39.817Z,26.03
2018-08-22T07:20:08.509Z,14.90
2018-08-22T07:22:36.982Z,17.23
2018-08-22T07:25:05.516Z,11.43
2018-08-22T07:27:33.922Z,19.17
2018-08-22T07:30:02.297Z,19.17
2018-08-22T07:32:30.743Z,8.83
2018-08-22T07:34:59.158Z,20.80
2018-08-22T07:37:27.554Z,17.77
2018-08-22T07:39:56.008Z,16.47
2018-08-22T07:42:24.374Z,16.67
2018-08-22T07:44:52.790Z,15.53
2018-08-22T07:47:21.182Z,17.33
2018-08-22T07:49:50.209Z,15.53
2018-08-22T07:52:18.669Z,16.43
2018-08-22T07:54:47.648Z,13.67
2018-08-22T07:57:17.354Z,17.17
2018-08-22T07:59:45.866Z,16.90
2018-08-22T08:02:14.404Z,18.90
2018-08-22T08:04:42.867Z,18.30
2018-08-22T08:07:11.306Z,17.87
2018-08-22T08:09:39.764Z,16.73
2018-08-22T08:12:08.155Z,14.00
2018-08-22T08:14:36.541Z,17.37
2018-08-22T08:17:05.066Z,18.93
2018-08-22T08:19:34.124Z,19.27
2018-08-22T08:22:02.525Z,16.93
2018-08-22T08:24:30.932Z,19.13
2018-08-22T08:26:59.382Z,14.33
2018-08-22T08:29:27.796Z,22.97
2018-08-22T08:31:56.185Z,18.80
2018-08-22T08:34:24.559Z,20.13
2018-08-22T08:36:52.986Z,19.37
2018-08-22T08:39:21.354Z,21.70
2018-08-22T08:41:49.811Z,20.83
2018-08-22T08:44:18.190Z,21.97
2018-08-22T08:46:46.545Z,25.07
2018-08-22T08:49:15.216Z,27.67
2018-08-22T08:51:54.840Z,24.70
2018-08-22T08:54:23.253Z,25.50
2018-08-22T08:56:51.796Z,24.07
2018-08-22T08:59:20.165Z,24.33
2018-08-22T09:01:48.549Z,26.33
2018-08-22T09:04:16.957Z,24.97
2018-08-22T09:06:45.358Z,26.67
2018-08-22T09:09:13.782Z,26.80
2018-08-22T09:11:49.285Z,25.50
2018-08-22T09:14:17.657Z,25.10
2018-08-22T09:16:46.154Z,29.83
2018-08-22T09:19:14.557Z,29.30
2018-08-22T09:21:42.909Z,30.23
2018-08-22T09:24:11.467Z,19.10
2018-08-22T09:26:39.906Z,31.40
2018-08-22T09:29:08.380Z,29.50
2018-08-22T09:31:36.873Z,30.33
2018-08-22T09:34:05.224Z,31.63
2018-08-22T09:36:34.731Z,27.77
2018-08-22T09:39:04.687Z,27.70
2018-08-22T09:41:33.179Z,26.50
2018-08-22T09:44:01.632Z,26.90
2018-08-22T09:46:29.984Z,28.23
2018-08-22T09:48:58.453Z,17.87
2018-08-22T09:51:26.918Z,18.93
2018-08-22T09:53:55.516Z,27.37
2018-08-22T09:56:23.961Z,24.70
2018-08-22T09:58:52.329Z,26.50
2018-08-22T10:01:27.726Z,26.53
2018-08-22T10:03:59.615Z,23.50
2018-08-22T10:06:38.057Z,24.03
2018-08-22T10:09:09.266Z,17.83
2018-08-22T10:11:37.761Z,26.00
2018-08-22T10:14:06.221Z,18.10
2018-08-22T10:16:34.720Z,17.50
2018-08-22T10:19:03.231Z,16.33
2018-08-22T10:21:31.562Z,19.17
2018-08-22T10:23:59.957Z,22.10
2018-08-22T10:26:28.443Z,18.43
2018-08-22T10:28:56.753Z,21.20
2018-08-22T10:31:25.681Z,24.97
2018-08-22T10:33:54.292Z,24.63
2018-08-22T10:36:22.664Z,20.30
2018-08-22T10:38:51.192Z,22.60
2018-08-22T10:41:19.681Z,19.77
2018-08-22T10:43:48.065Z,21.07
2018-08-22T10:46:16.501Z,20.27
2018-08-22T10:48:44.881Z,20.60
2018-08-22T10:51:13.334Z,19.13
2018-08-22T10:53:41.765Z,18.63
2018-08-22T10:56:10.262Z,19.70
2018-08-22T10:58:39.569Z,16.80
2018-08-22T11:01:07.953Z,17.97
2018-08-22T11:03:36.357Z,19.13
2018-08-22T11:06:04.977Z,18.93
2018-08-22T11:08:33.426Z,16.80
2018-08-22T11:11:01.819Z,8.10
2018-08-22T11:13:30.211Z,13.03
2018-08-22T11:15:58.593Z,11.93
2018-08-22T11:18:27.014Z,12.27
2018-08-22T11:20:55.006Z,16.50
2018-08-22T11:23:34.997Z,14.73
2018-08-22T11:26:14.792Z,18.30
2018-08-22T11:28:54.401Z,17.57
2018-08-22T11:31:34.034Z,15.73
2018-08-22T11:34:13.767Z,12.03
2018-08-22T11:36:48.122Z,12.63
2018-08-22T11:39:16.525Z,16.90
2018-08-22T11:41:44.952Z,16.70
2018-08-22T11:44:13.309Z,18.20
2018-08-22T11:46:41.766Z,17.37
2018-08-22T11:49:10.214Z,16.20
2018-08-22T11:51:38.657Z,19.10
2018-08-22T11:54:07.037Z,19.47
2018-08-22T11:56:35.416Z,20.77
2018-08-22T11:59:03.834Z,17.27
2018-08-22T12:01:32.238Z,18.37
2018-08-22T12:04:00.610Z,18.37
2018-08-22T12:06:29.090Z,19.10
2018-08-22T12:08:57.506Z,20.00
2018-08-22T12:11:25.938Z,19.07
2018-08-22T12:13:54.354Z,20.57
2018-08-22T12:16:22.719Z,22.53
2018-08-22T12:18:51.148Z,22.93
2018-08-22T12:21:19.630Z,21.67
2018-08-22T12:23:48.053Z,18.97
2018-08-22T12:26:16.510Z,19.70
2018-08-22T12:28:44.910Z,20.20
2018-08-22T12:31:13.396Z,23.20
2018-08-22T12:33:41.786Z,25.17
2018-08-22T12:36:10.247Z,23.90
2018-08-22T12:38:38.915Z,17.47
2018-08-22T12:41:07.675Z,21.43
2018-08-22T12:43:36.067Z,24.20
2018-08-22T12:46:04.574Z,19.80
2018-08-22T12:48:32.959Z,23.20
2018-08-22T12:51:01.504Z,18.30
2018-08-22T12:53:29.918Z,17.37
2018-08-22T12:55:58.331Z,24.83
2018-08-22T12:58:26.693Z,16.03
2018-08-22T13:00:55.121Z,21.17
2018-08-22T13:03:24.542Z,22.60
2018-08-22T13:05:53.017Z,18.87
2018-08-22T13:08:21.489Z,22.97
2018-08-22T13:10:49.901Z,19.17
2018-08-22T13:13:18.290Z,18.20
2018-08-22T13:15:46.665Z,19.13
2018-08-22T13:18:15.062Z,17.53
2018-08-22T13:20:43.477Z,18.30
2018-08-22T13:23:11.953Z,11.37
2018-08-22T13:25:40.385Z,17.83
2018-08-22T13:28:08.790Z,18.83
2018-08-22T13:30:37.186Z,18.30
2018-08-22T13:33:05.582Z,9.97
2018-08-22T13:35:33.985Z,13.10
2018-08-22T13:38:02.366Z,15.73
2018-08-22T13:40:30.749Z,12.97
2018-08-22T13:42:59.162Z,17.00
2018-08-22T13:45:27.574Z,11.27
2018-08-22T13:47:56.052Z,14.67
2018-08-22T13:50:24.501Z,13.30
2018-08-22T13:52:52.880Z,15.97
2018-08-22T13:55:21.325Z,13.80
2018-08-22T13:57:49.728Z,13.93
2018-08-22T14:00:18.906Z,11.60
2018-08-22T14:02:47.282Z,13.43
2018-08-22T14:05:15.731Z,13.17
2018-08-22T14:07:44.233Z,13.27
2018-08-22T14:10:12.619Z,12.50
2018-08-22T14:12:41.058Z,13.03
2018-08-22T14:15:09.442Z,12.57
2018-08-22T14:17:37.871Z,8.17
2018-08-22T14:20:06.358Z,11.80
2018-08-22T14:22:34.713Z,12.40
2018-08-22T14:25:03.106Z,13.77
2018-08-22T14:27:31.786Z,14.10
2018-08-22T14:30:00.176Z,9.97
2018-08-22T14:32:28.632Z,12.03
2018-08-22T14:34:57.341Z,14.27
2018-08-22T14:37:25.703Z,12.37
2018-08-22T14:39:54.167Z,9.17
2018-08-22T14:42:22.588Z,12.20
2018-08-22T14:44:50.960Z,10.87
2018-08-22T14:47:19.401Z,10.47
2018-08-22T14:49:47.783Z,10.70
2018-08-22T14:52:16.165Z,10.87
2018-08-22T14:54:44.606Z,7.13
2018-08-22T14:57:13.016Z,12.60
2018-08-22T14:59:41.466Z,12.03
2018-08-22T15:02:09.949Z,13.90
2018-08-22T15:04:38.401Z,10.63
2018-08-22T15:07:06.977Z,18.00
2018-08-22T15:09:35.455Z,14.57
2018-08-22T15:12:03.893Z,14.63
2018-08-22T15:14:32.284Z,15.17
2018-08-22T15:17:00.827Z,19.63
2018-08-22T15:19:29.253Z,12.87
2018-08-22T15:21:57.671Z,10.30
2018-08-22T15:24:26.100Z,14.73
2018-08-22T15:26:54.496Z,14.07
2018-08-22T15:29:23.321Z,13.67
2018-08-22T15:31:51.768Z,17.80
2018-08-22T15:34:20.210Z,17.37
2018-08-22T15:36:48.614Z,18.73
2018-08-22T15:39:17.022Z,18.20
2018-08-22T15:41:45.515Z,12.00
2018-08-22T15:44:13.862Z,20.07
2018-08-22T15:46:42.269Z,23.87
2018-08-22T15:49:10.654Z,20.63
2018-08-22T15:51:39.134Z,23.67
2018-08-22T15:54:11.654Z,21.57
2018-08-22T15:56:41.145Z,11.83
2018-08-22T15:59:10.349Z,16.13
2018-08-22T16:01:39.112Z,15.17
2018-08-22T16:04:07.817Z,16.23
2018-08-22T16:06:36.210Z,15.17
2018-08-22T16:09:06.225Z,15.90
2018-08-22T16:11:34.596Z,18.20
2018-08-22T16:14:03.096Z,19.17
2018-08-22T16:16:32.437Z,20.40
2018-08-22T16:19:03.201Z,22.20
2018-08-22T16:21:31.647Z,23.80
2018-08-22T16:24:00.109Z,16.10
2018-08-22T16:26:28.520Z,25.60
2018-08-22T16:28:58.461Z,22.73
2018-08-22T16:31:33.037Z,22.50
2018-08-22T16:34:01.487Z,14.47
2018-08-22T16:36:30.893Z,20.80
2018-08-22T16:39:00.401Z,21.80
2018-08-22T16:41:28.825Z,23.30
2018-08-22T16:43:57.227Z,24.73
2018-08-22T16:46:25.678Z,23.00
2018-08-22T16:48:55.146Z,24.47
2018-08-22T16:51:24.209Z,26.57
2018-08-22T16:53:58.705Z,16.13
2018-08-22T16:56:27.949Z,28.90
2018-08-22T16:59:12.933Z,26.67
2018-08-22T17:01:45.982Z,17.87
2018-08-22T17:04:14.397Z,25.47
2018-08-22T17:06:42.808Z,24.77
2018-08-22T17:09:11.754Z,23.33
2018-08-22T17:11:40.921Z,24.20
2018-08-22T17:14:09.542Z,23.90
2018-08-22T17:16:39.224Z,21.67
2018-08-22T17:19:07.665Z,22.93
2018-08-22T17:21:36.079Z,19.33
2018-08-22T17:24:04.522Z,22.47
2018-08-22T17:26:32.987Z,25.03
2018-08-22T17:29:01.367Z,23.53
2018-08-22T17:31:30.909Z,22.43
2018-08-22T17:34:02.566Z,22.80
2018-08-22T17:36:30.959Z,21.37
2018-08-22T17:39:00.955Z,20.30
2018-08-22T17:41:30.030Z,20.57
2018-08-22T17:44:11.633Z,16.50
2018-08-22T17:46:47.601Z,21.50
2018-08-22T17:49:16.022Z,21.20
2018-08-22T17:52:07.311Z,20.90
2018-08-22T17:54:35.882Z,21.67
2018-08-22T17:57:13.897Z,22.03
2018-08-22T17:59:43.225Z,22.43
2018-08-22T18:02:11.923Z,22.20
2018-08-22T18:04:51.968Z,21.05
2018-08-22T18:07:20.377Z,20.70
2018-08-22T18:09:49.590Z,20.97
2018-08-22T18:12:18.848Z,19.37
2018-08-22T18:14:47.228Z,20.10
2018-08-22T18:17:16.232Z,21.20
2018-08-22T18:19:44.645Z,20.73
2018-08-22T18:22:13.074Z,21.10
2018-08-22T18:24:58.267Z,21.50
2018-08-22T18:27:26.977Z,19.87
2018-08-22T18:29:55.414Z,20.23
2018-08-22T18:32:24.758Z,20.10
2018-08-22T18:35:00.644Z,19.57
2018-08-22T18:37:29.997Z,19.63
2018-08-22T18:40:11.118Z,20.70
2018-08-22T18:42:39.727Z,19.70
2018-08-22T18:45:08.202Z,20.97
2018-08-22T18:47:37.101Z,20.67
2018-08-22T18:50:05.918Z,21.37
2018-08-22T18:52:34.345Z,19.87
2018-08-22T18:55:03.191Z,20.87
2018-08-22T18:57:31.697Z,20.13
2018-08-22T19:00:03.150Z,21.00
2018-08-22T19:02:32.136Z,21.87
2018-08-22T19:05:14.650Z,20.37
2018-08-22T19:07:53.530Z,20.30
2018-08-22T19:10:22.459Z,19.77
2018-08-22T19:12:56.267Z,20.20
2018-08-22T19:15:25.087Z,20.23
2018-08-22T19:17:53.734Z,23.40
2018-08-22T19:20:22.466Z,23.40
2018-08-22T19:22:50.850Z,24.60
2018-08-22T19:25:19.366Z,23.03
2018-08-22T19:27:48.196Z,23.03
2018-08-22T19:30:16.594Z,22.17
2018-08-22T19:32:45.002Z,21.63
2018-08-22T19:35:13.430Z,22.33
2018-08-22T19:37:43.407Z,22.77
2018-08-22T19:40:11.873Z,21.57
2018-08-22T19:42:40.997Z,22.17
2018-08-22T19:45:09.931Z,20.67
2018-08-22T19:47:39.442Z,20.47
2018-08-22T19:50:09.012Z,20.53
2018-08-22T19:52:37.498Z,20.40
2018-08-22T19:55:06.684Z,20.70
2018-08-22T19:57:37.400Z,21.37
2018-08-22T20:00:08.766Z,20.47
2018-08-22T20:02:37.633Z,20.87
2018-08-22T20:05:07.750Z,20.63
2018-08-22T20:07:36.369Z,20.80
2018-08-22T20:10:04.802Z,21.40
2018-08-22T20:13:02.000Z,21.00
2018-08-22T20:15:30.510Z,20.93
2018-08-22T20:17:58.933Z,19.87
2018-08-22T20:20:27.333Z,18.93
2018-08-22T20:22:56.230Z,19.17
2018-08-22T20:25:24.584Z,17.93
2018-08-22T20:27:52.978Z,18.60
2018-08-22T20:30:22.343Z,19.13
2018-08-22T20:32:59.422Z,19.30
2018-08-22T20:35:29.770Z,17.67
2018-08-22T20:37:59.729Z,18.07
2018-08-22T20:40:28.296Z,18.30
2018-08-22T20:42:56.825Z,17.87
2018-08-22T20:45:30.436Z,18.37
2018-08-22T20:48:04.189Z,19.27
2018-08-22T20:50:32.905Z,18.47
2018-08-22T20:53:06.477Z,19.90
2018-08-22T20:55:35.002Z,19.63
2018-08-22T20:58:04.061Z,20.73
2018-08-22T21:00:34.115Z,19.23
2018-08-22T21:03:02.634Z,20.23
2018-08-22T21:05:30.945Z,19.17
2018-08-22T21:07:59.322Z,19.63
2018-08-22T21:10:27.746Z,18.30
2018-08-22T21:12:56.281Z,18.63
2018-08-22T21:15:24.693Z,17.93
2018-08-22T21:17:53.113Z,18.20
2018-08-22T21:20:25.453Z,17.90
2018-08-22T21:22:54.807Z,17.73
2018-08-22T21:25:25.341Z,17.70
2018-08-22T21:27:54.274Z,17.50
2018-08-22T21:30:22.743Z,16.73
2018-08-22T21:32:51.141Z,17.50
2018-08-22T21:35:23.712Z,17.47
2018-08-22T21:37:52.445Z,17.33
2018-08-22T21:40:21.324Z,17.47
2018-08-22T21:42:51.357Z,17.23
2018-08-22T21:45:19.762Z,17.33
2018-08-22T21:47:50.262Z,17.40
2018-08-22T21:50:18.623Z,17.77
2018-08-22T21:52:52.206Z,18.13
2018-08-22T21:55:24.828Z,16.97
2018-08-22T21:57:53.241Z,17.17
2018-08-22T22:00:25.435Z,18.33
2018-08-22T22:02:53.837Z,18.70
2018-08-22T22:05:26.766Z,17.97
2018-08-22T22:07:55.142Z,18.37
2018-08-22T22:10:23.509Z,17.87
2018-08-22T22:12:51.921Z,17.77
2018-08-22T22:15:25.648Z,17.70
2018-08-22T22:17:54.095Z,18.73
2018-08-22T22:20:22.483Z,18.20
2018-08-22T22:22:50.868Z,17.93
2018-08-22T22:25:19.317Z,18.10
2018-08-22T22:27:47.762Z,17.67
2018-08-22T22:30:16.103Z,18.80
2018-08-22T22:32:44.540Z,17.80
2018-08-22T22:35:14.300Z,17.40
2018-08-22T22:37:42.729Z,18.10
2018-08-22T22:40:11.137Z,18.83
2018-08-22T22:42:40.342Z,17.57
2018-08-22T22:45:08.781Z,17.83
2018-08-22T22:47:37.166Z,18.73
2018-08-22T22:50:05.753Z,18.20
2018-08-22T22:52:37.400Z,18.93
2018-08-22T22:55:07.088Z,18.10
2018-08-22T22:57:36.810Z,18.03
2018-08-22T23:00:09.500Z,19.37
2018-08-22T23:02:37.880Z,19.00
2018-08-22T23:05:06.565Z,18.80
2018-08-22T23:07:36.225Z,18.23
2018-08-22T23:10:05.717Z,18.13
2018-08-22T23:12:37.867Z,18.90
2018-08-22T23:15:09.282Z,17.77
2018-08-22T23:17:37.775Z,18.90
2018-08-22T23:20:21.449Z,18.77
2018-08-22T23:22:49.837Z,18.03
2018-08-22T23:25:18.204Z,18.87
2018-08-22T23:27:46.581Z,18.17
2018-08-22T23:30:18.534Z,17.57
2018-08-22T23:32:46.949Z,18.30
2018-08-22T23:35:24.119Z,17.80
2018-08-22T23:37:55.673Z,18.30
2018-08-22T23:40:25.194Z,18.40
2018-08-22T23:42:53.833Z,17.93
2018-08-22T23:45:22.410Z,18.50
2018-08-22T23:47:50.966Z,17.90
2018-08-22T23:50:19.417Z,17.50
2018-08-22T23:52:50.860Z,18.23
2018-08-22T23:55:20.657Z,18.00
2018-08-22T23:57:53.805Z,17.67
